Time;durP1;ratioP1;P1;durP2;ratioP2;P2;SDS_P1;SDS_P2;PMS_P1;PMS_P2;Temp;Humidity;BMP_temperature;BMP_pressure;BME280_temperature;BME280_humidity;BME280_pressure;Samples;Min_cycle;Max_cycle;Signal;HPM_P1;HPM_P2
2022/03/12 00:03:23;;;;;;;12.77;7.45;;;;;;;4.70;36.60;100060.00;10315964;28;20181;-83
2022/03/12 00:08:40;;;;;;;11.48;7.63;;;;;;;4.68;36.21;100057.47;10313859;28;20054;-83
2022/03/12 00:13:43;;;;;;;11.65;7.28;;;;;;;4.66;36.65;100067.03;10315497;28;20136;-83
2022/03/12 00:18:49;;;;;;;12.63;7.68;;;;;;;4.70;36.62;100065.16;10314556;28;20169;-83
2022/03/12 00:24:00;;;;;;;13.90;7.55;;;;;;;4.72;36.27;100061.63;10314834;28;20144;-83
2022/03/12 00:29:02;;;;;;;12.98;8.10;;;;;;;4.69;36.06;100061.75;10313419;28;20121;-83
2022/03/12 00:34:03;;;;;;;12.38;7.28;;;;;;;4.69;35.65;100058.31;10314894;28;20175;-83
2022/03/12 00:39:09;;;;;;;10.77;7.25;;;;;;;4.76;36.39;100058.97;10294187;28;20846;-83
2022/03/12 00:44:19;;;;;;;12.55;7.88;;;;;;;4.78;36.01;100059.75;10313864;28;20153;-83
2022/03/12 00:49:20;;;;;;;15.70;8.48;;;;;;;4.67;36.06;100071.31;10306320;28;20144;-83
2022/03/12 00:54:22;;;;;;;12.48;8.10;;;;;;;4.60;36.64;100068.97;10314190;28;20148;-83
2022/03/12 00:59:24;;;;;;;19.13;9.02;;;;;;;4.72;36.63;100063.38;10294353;28;20054;-83
2022/03/12 01:04:25;;;;;;;34.90;18.58;;;;;;;4.80;36.38;100061.38;10313192;28;20073;-83
2022/03/12 01:09:27;;;;;;;54.03;27.10;;;;;;;4.82;36.39;100058.75;10313927;28;20137;-83
2022/03/12 01:14:29;;;;;;;63.30;28.60;;;;;;;4.85;36.19;100069.00;10312643;28;20746;-83
2022/03/12 01:19:34;;;;;;;52.58;28.42;;;;;;;4.89;35.77;100062.81;10294457;28;20168;-83
2022/03/12 01:24:37;;;;;;;24.08;13.18;;;;;;;4.83;36.20;100066.47;10313494;28;20051;-83
2022/03/12 01:29:38;;;;;;;27.92;15.07;;;;;;;4.86;36.21;100068.94;10312557;28;20054;-83
2022/03/12 01:34:40;;;;;;;23.17;13.32;;;;;;;4.79;36.51;100074.38;10313892;28;20053;-83
2022/03/12 01:39:42;;;;;;;17.33;9.23;;;;;;;4.70;36.60;100060.84;10314207;28;20137;-83
2022/03/12 01:44:44;;;;;;;13.98;8.88;;;;;;;4.73;36.66;100062.50;10313017;28;20145;-83
2022/03/12 01:49:47;;;;;;;18.63;10.38;;;;;;;4.75;36.77;100065.88;10294475;28;20061;-83
2022/03/12 01:54:49;;;;;;;17.95;10.02;;;;;;;4.77;36.37;100077.03;10311862;28;20149;-83
2022/03/12 01:59:51;;;;;;;49.10;23.23;;;;;;;4.82;36.37;100062.16;10300835;28;20085;-84
2022/03/12 02:04:53;;;;;;;80.03;37.80;;;;;;;4.88;36.43;100055.94;10291712;28;20055;-83
2022/03/12 02:09:54;;;;;;;63.28;28.60;;;;;;;4.93;36.45;100059.22;10290555;28;20046;-83
2022/03/12 02:14:56;;;;;;;50.95;25.92;;;;;;;4.94;36.36;100061.78;10274917;28;20571;-83
2022/03/12 02:19:58;;;;;;;28.15;14.40;;;;;;;4.97;36.07;100066.84;10292928;28;20076;-83
2022/03/12 02:24:59;;;;;;;15.02;9.27;;;;;;;4.88;35.78;100068.91;10275399;28;21093;-83
2022/03/12 02:30:02;;;;;;;14.07;8.98;;;;;;;4.84;35.78;100067.31;10276263;28;20141;-83
2022/03/12 02:35:10;;;;;;;15.82;8.38;;;;;;;4.91;36.25;100080.00;10294053;28;20055;-83
2022/03/12 02:40:13;;;;;;;12.32;7.90;;;;;;;4.98;35.82;100085.81;10292215;28;20070;-83
2022/03/12 02:45:15;;;;;;;13.27;8.23;;;;;;;4.94;36.14;100084.25;10292486;28;20146;-83
2022/03/12 02:50:17;;;;;;;13.68;8.15;;;;;;;4.97;36.29;100091.88;10291648;28;20061;-83
2022/03/12 02:55:21;;;;;;;10.35;7.05;;;;;;;5.00;35.85;100082.28;10292110;28;20138;-83
2022/03/12 03:00:23;;;;;;;12.15;6.80;;;;;;;4.89;34.48;100091.31;10303237;28;20058;-83
2022/03/12 03:06:09;;;;;;;9.98;6.38;;;;;;;4.78;33.83;100096.03;10307498;28;20089;-83
2022/03/12 03:10:54;;;;;;;13.48;6.82;;;;;;;4.69;34.66;100105.81;10314564;28;20085;-83
2022/03/12 03:16:23;;;;;;;10.63;6.47;;;;;;;4.70;33.63;100114.41;10324720;28;20058;-83
2022/03/12 03:21:26;;;;;;;14.05;6.40;;;;;;;4.65;34.08;100121.47;10323820;28;20050;-83
2022/03/12 03:26:49;;;;;;;10.13;6.20;;;;;;;4.50;34.45;100111.59;10324260;28;20125;-83
2022/03/12 03:31:50;;;;;;;11.82;7.20;;;;;;;4.45;35.81;100121.28;10306061;28;20463;-83
2022/03/12 03:36:52;;;;;;;15.68;6.88;;;;;;;4.34;36.52;100124.22;10324586;28;20089;-83
2022/03/12 03:41:54;;;;;;;12.13;7.22;;;;;;;4.28;36.86;100131.31;10323384;28;20600;-83
2022/03/12 03:46:56;;;;;;;11.85;7.18;;;;;;;4.21;36.04;100124.66;10323789;28;20494;-83
2022/03/12 03:51:58;;;;;;;13.63;7.57;;;;;;;4.25;36.65;100137.41;10322861;28;20074;-83
2022/03/12 03:57:00;;;;;;;13.85;7.40;;;;;;;4.31;36.23;100139.00;10322712;28;20096;-83
2022/03/12 04:02:02;;;;;;;13.65;7.97;;;;;;;4.26;36.74;100146.91;10322511;28;20093;-83
2022/03/12 04:07:10;;;;;;;11.57;6.90;;;;;;;4.34;36.58;100147.50;10315150;28;20054;-83
2022/03/12 04:12:12;;;;;;;12.63;7.03;;;;;;;4.34;36.54;100159.59;10315908;28;20155;-83
2022/03/12 04:17:16;;;;;;;11.25;6.72;;;;;;;4.29;36.93;100162.31;10316754;28;20141;-83
2022/03/12 04:22:18;;;;;;;13.88;7.22;;;;;;;4.16;37.13;100166.19;10317218;28;20132;-83
2022/03/12 04:27:22;;;;;;;14.38;7.43;;;;;;;4.00;37.45;100167.53;10316068;28;20085;-83
2022/03/12 04:32:23;;;;;;;11.60;7.25;;;;;;;3.86;37.35;100172.28;10297687;28;20125;-83
2022/03/12 04:37:25;;;;;;;12.80;7.18;;;;;;;3.68;37.67;100172.75;10315781;28;20336;-83
2022/03/12 04:42:27;;;;;;;12.10;7.30;;;;;;;3.49;37.39;100171.56;10315689;28;20050;-83
2022/03/12 04:47:29;;;;;;;11.00;6.78;;;;;;;3.33;37.53;100180.63;10296486;28;20141;-83
2022/03/12 04:52:31;;;;;;;9.73;6.60;;;;;;;3.36;37.51;100185.69;10321910;28;20499;-83
2022/03/12 04:57:34;;;;;;;11.50;6.95;;;;;;;3.26;37.96;100189.41;10295408;28;20085;-83
2022/03/12 05:02:35;;;;;;;11.55;7.35;;;;;;;3.24;38.54;100194.63;10314754;28;20507;-83
2022/03/12 05:07:45;;;;;;;15.02;7.45;;;;;;;3.33;39.26;100202.16;10315632;28;20072;-83
2022/03/12 05:12:51;;;;;;;12.32;7.80;;;;;;;3.50;39.34;100199.09;10314450;28;20141;-83
2022/03/12 05:17:53;;;;;;;10.93;7.47;;;;;;;3.57;39.50;100192.88;10315040;28;20088;-83
2022/03/12 05:22:55;;;;;;;11.55;7.63;;;;;;;3.59;39.45;100199.72;10315068;28;20158;-83
2022/03/12 05:27:57;;;;;;;13.70;9.30;;;;;;;3.54;39.98;100195.53;10313346;28;20050;-83
2022/03/12 05:32:59;;;;;;;15.63;8.38;;;;;;;3.47;39.99;100205.22;10308684;28;20050;-83
2022/03/12 05:38:01;;;;;;;15.07;6.97;;;;;;;3.25;40.00;100205.81;10312119;28;20080;-83
2022/03/12 05:43:03;;;;;;;12.35;7.50;;;;;;;3.15;40.48;100214.69;10314684;28;20097;-83
2022/03/12 05:48:09;;;;;;;14.25;7.82;;;;;;;3.13;40.28;100214.72;10312330;28;20169;-83
2022/03/12 05:53:14;;;;;;;12.63;7.75;;;;;;;3.05;40.52;100212.31;10313253;28;20124;-83
2022/03/12 05:58:19;;;;;;;13.23;7.93;;;;;;;2.98;40.56;100220.28;10307825;28;20745;-84
2022/03/12 06:03:23;;;;;;;12.52;7.95;;;;;;;2.85;40.99;100219.72;10287624;28;20051;-83
2022/03/12 06:08:26;;;;;;;16.58;8.75;;;;;;;2.89;42.09;100223.91;10291727;28;20868;-83
2022/03/12 06:13:28;;;;;;;13.43;8.27;;;;;;;2.98;41.84;100222.84;10290356;28;20165;-83
2022/03/12 06:18:38;;;;;;;15.52;8.50;;;;;;;3.23;42.35;100218.78;10290473;28;20105;-83
2022/03/12 06:23:39;;;;;;;14.57;8.32;;;;;;;3.40;41.41;100226.09;10289565;28;20515;-83
2022/03/12 06:28:43;;;;;;;10.65;7.53;;;;;;;3.63;40.90;100241.84;10291195;28;20141;-83
2022/03/12 06:33:45;;;;;;;12.52;7.32;;;;;;;3.76;40.53;100235.47;10293215;28;20152;-83
2022/03/12 06:38:47;;;;;;;11.73;7.35;;;;;;;3.86;39.79;100235.19;10280432;28;20146;-83
2022/03/12 06:43:48;;;;;;;12.18;7.60;;;;;;;3.83;39.82;100239.56;10300745;28;20154;-83
2022/03/12 06:48:50;;;;;;;10.32;7.13;;;;;;;3.92;39.95;100243.69;10300711;28;20568;-83
2022/03/12 06:53:55;;;;;;;14.27;7.55;;;;;;;4.13;39.75;100241.31;10301535;28;20621;-83
2022/03/12 06:59:01;;;;;;;12.07;7.50;;;;;;;4.44;38.23;100244.72;10307331;28;20133;-83
2022/03/12 07:04:03;;;;;;;12.82;6.90;;;;;;;4.80;37.77;100236.72;10320087;28;20112;-83
2022/03/12 07:09:04;;;;;;;10.82;6.50;;;;;;;4.95;37.16;100244.00;10319016;28;21154;-84
2022/03/12 07:14:06;;;;;;;10.48;6.35;;;;;;;5.26;35.90;100234.34;10319372;28;20165;-84
2022/03/12 07:19:08;;;;;;;12.00;6.95;;;;;;;5.43;35.80;100237.22;10319003;28;20575;-83
2022/03/12 07:24:10;;;;;;;9.68;6.55;;;;;;;5.60;35.29;100231.44;10317929;28;20074;-83
2022/03/12 07:29:12;;;;;;;12.57;7.00;;;;;;;5.57;34.80;100240.19;10317831;28;20054;-83
2022/03/12 07:34:15;;;;;;;9.35;6.68;;;;;;;5.46;34.59;100237.09;10298322;28;20567;-84
2022/03/12 07:39:17;;;;;;;11.18;6.80;;;;;;;5.29;34.57;100244.59;10322468;28;20088;-84
2022/03/12 07:44:19;;;;;;;10.63;6.75;;;;;;;5.42;34.26;100240.72;10316626;28;20042;-83
2022/03/12 07:49:23;;;;;;;11.35;6.43;;;;;;;5.60;34.05;100255.66;10313054;28;20093;-84
2022/03/12 07:54:25;;;;;;;12.50;6.63;;;;;;;5.92;33.82;100257.13;10314607;28;20137;-83
2022/03/12 07:59:29;;;;;;;8.75;5.93;;;;;;;6.21;33.48;100265.56;10320769;28;20153;-83
2022/03/12 08:04:33;;;;;;;10.68;6.78;;;;;;;6.41;33.38;100261.41;10316364;28;20089;-83
2022/03/12 08:09:35;;;;;;;11.20;6.68;;;;;;;6.50;33.08;100264.50;10298018;28;20089;-83
2022/03/12 08:14:37;;;;;;;10.25;6.32;;;;;;;6.64;32.76;100264.81;10295280;28;20050;-83
2022/03/12 08:19:39;;;;;;;11.70;7.43;;;;;;;6.95;32.31;100254.94;10314916;28;20150;-83
2022/03/12 08:24:40;;;;;;;10.15;6.40;;;;;;;7.34;32.06;100249.00;10295402;28;20060;-84
2022/03/12 08:29:44;;;;;;;13.73;6.50;;;;;;;7.95;31.32;100243.72;10297543;28;20140;-84
2022/03/12 08:34:45;;;;;;;13.45;6.50;;;;;;;8.06;30.62;100248.44;10311219;28;20141;-83
2022/03/12 08:39:48;;;;;;;12.27;6.80;;;;;;;7.84;30.92;100248.56;10311792;28;20318;-84
2022/03/12 08:44:50;;;;;;;11.50;6.40;;;;;;;7.58;31.36;100264.44;10312829;28;20054;-83
2022/03/12 08:49:52;;;;;;;9.57;6.43;;;;;;;8.17;30.89;100263.63;10311276;28;20141;-84
2022/03/12 08:54:53;;;;;;;13.90;6.88;;;;;;;8.49;30.38;100260.41;10312030;28;20050;-83
2022/03/12 08:59:55;;;;;;;10.35;6.68;;;;;;;8.92;30.63;100265.31;10308106;28;20677;-84
2022/03/12 09:04:57;;;;;;;11.30;7.10;;;;;;;9.12;29.99;100259.13;10310324;28;20728;-84
2022/03/12 09:09:59;;;;;;;11.65;6.40;;;;;;;9.02;29.96;100266.56;10309895;28;20142;-84
2022/03/12 09:15:01;;;;;;;10.07;6.45;;;;;;;9.23;30.11;100256.84;10309716;28;20138;-84
2022/03/12 09:20:04;;;;;;;13.35;7.38;;;;;;;9.37;29.56;100255.25;10291849;28;20773;-84
2022/03/12 09:25:11;;;;;;;14.50;7.45;;;;;;;9.45;29.58;100265.31;10309629;28;20137;-84
2022/03/12 09:30:15;;;;;;;10.02;7.07;;;;;;;9.82;29.51;100252.13;10291569;28;20085;-84
2022/03/12 09:35:19;;;;;;;10.30;7.05;;;;;;;9.56;29.77;100253.41;10312767;28;20097;-84
2022/03/12 09:40:22;;;;;;;15.10;7.43;;;;;;;9.86;29.91;100261.50;10310477;28;20054;-84
2022/03/12 09:45:24;;;;;;;14.10;7.80;;;;;;;10.25;30.05;100248.97;10311890;28;20657;-83
2022/03/12 09:50:26;;;;;;;10.80;7.57;;;;;;;10.58;29.46;100250.69;10311565;28;20137;-84
2022/03/12 09:55:28;;;;;;;11.57;7.72;;;;;;;10.38;29.49;100251.75;10309964;28;20065;-84
2022/03/12 10:00:29;;;;;;;13.52;7.70;;;;;;;10.70;29.12;100256.09;10310184;28;20498;-84
2022/03/12 10:05:32;;;;;;;13.15;7.78;;;;;;;11.13;28.85;100247.53;10311371;28;20050;-84
2022/03/12 10:10:35;;;;;;;10.20;7.50;;;;;;;11.77;28.56;100251.66;10292320;28;20054;-84
2022/03/12 10:15:38;;;;;;;13.32;7.47;;;;;;;12.13;28.30;100245.03;10319482;28;20054;-84
2022/03/12 10:20:40;;;;;;;14.55;7.40;;;;;;;12.27;28.34;100241.56;10317145;28;20526;-84
2022/03/12 10:32:42;;;;;;;14.85;8.50;;;;;;;12.91;27.32;100215.59;10317971;28;20046;-84
2022/03/12 10:37:45;;;;;;;17.77;8.52;;;;;;;13.24;28.04;100211.69;10288573;28;20056;-84
2022/03/12 10:42:52;;;;;;;14.32;8.23;;;;;;;13.41;27.61;100207.00;10319348;28;20050;-84
2022/03/12 10:47:58;;;;;;;14.45;8.60;;;;;;;13.15;27.43;100204.44;10313124;28;20089;-84
2022/03/12 10:53:07;;;;;;;12.43;8.32;;;;;;;12.88;27.96;100209.72;10313233;28;20489;-83
2022/03/12 10:58:12;;;;;;;13.05;8.60;;;;;;;12.66;29.02;100209.41;10316267;28;20133;-83
2022/03/12 11:03:17;;;;;;;13.23;9.32;;;;;;;12.56;29.49;100203.03;10316035;28;20777;-83
2022/03/12 11:08:29;;;;;;;12.88;8.82;;;;;;;12.47;29.88;100201.00;10315875;28;20741;-82
2022/03/12 11:13:38;;;;;;;16.15;10.98;;;;;;;12.38;29.46;100210.28;10317262;28;20050;-83
2022/03/12 11:19:07;;;;;;;12.35;8.73;;;;;;;12.40;29.04;100205.78;10293384;28;20156;-83
2022/03/12 11:30:37;;;;;;;13.68;8.60;;;;;;;12.69;29.20;100202.19;10313255;28;20035;-83
2022/03/12 11:35:44;;;;;;;17.95;9.95;;;;;;;12.55;30.77;100199.59;10315305;28;20061;-82
2022/03/12 11:40:49;;;;;;;14.68;8.50;;;;;;;12.65;30.07;100199.84;10294857;28;20494;-82
2022/03/12 11:45:53;;;;;;;13.70;9.05;;;;;;;12.77;30.19;100194.66;10314067;28;20057;-83
2022/03/12 11:51:00;;;;;;;14.90;10.63;;;;;;;12.71;30.60;100179.31;10312386;28;20114;-83
2022/03/12 11:56:04;;;;;;;13.35;9.20;;;;;;;12.76;30.02;100171.97;10312429;28;20480;-83
2022/03/12 12:01:11;;;;;;;13.13;8.80;;;;;;;12.78;30.64;100159.56;10293043;28;20534;-84
2022/03/12 12:06:13;;;;;;;15.88;9.90;;;;;;;12.79;30.45;100165.69;10294258;28;20986;-84
2022/03/12 12:11:17;;;;;;;14.07;9.70;;;;;;;12.79;30.71;100156.03;10306392;28;20157;-83
2022/03/12 12:16:22;;;;;;;12.18;9.15;;;;;;;12.63;30.42;100157.97;10309417;28;20109;-83
2022/03/12 12:21:30;;;;;;;11.48;9.30;;;;;;;12.66;31.46;100146.44;10311493;28;20062;-83
2022/03/12 12:26:36;;;;;;;13.57;8.73;;;;;;;13.05;30.85;100142.97;10303664;28;20117;-83
2022/03/12 12:31:47;;;;;;;15.20;9.93;;;;;;;12.75;33.43;100137.94;10309166;28;20114;-84
2022/03/12 12:36:59;;;;;;;13.48;7.93;;;;;;;13.13;32.34;100138.88;10309210;28;20146;-83
2022/03/12 12:42:04;;;;;;;12.07;7.60;;;;;;;13.25;32.10;100130.16;10309241;28;20138;-81
2022/03/12 12:47:08;;;;;;;15.00;8.25;;;;;;;13.51;32.51;100141.59;10308925;28;20089;-82
2022/03/12 12:52:10;;;;;;;9.70;7.72;;;;;;;13.71;32.27;100136.66;10294885;28;20057;-83
2022/03/12 12:57:12;;;;;;;11.80;8.30;;;;;;;13.72;32.05;100130.44;10306976;28;20065;-81
2022/03/12 13:02:14;;;;;;;14.05;8.23;;;;;;;13.54;31.58;100128.22;10274995;28;20063;-83
2022/03/12 13:07:26;;;;;;;11.23;7.95;;;;;;;13.40;31.79;100112.53;10256268;28;20093;-83
2022/03/12 13:12:43;;;;;;;12.45;8.73;;;;;;;13.31;31.77;100111.38;10272528;28;20081;-82
2022/03/12 13:18:30;;;;;;;12.35;7.85;;;;;;;13.24;32.60;100104.00;10270991;28;20791;-83
2022/03/12 13:23:45;;;;;;;10.55;7.75;;;;;;;13.05;33.00;100098.34;10270790;28;21383;-82
2022/03/12 13:29:06;;;;;;;11.23;7.40;;;;;;;13.00;33.43;100103.06;10271838;28;20063;-82
2022/03/12 13:34:11;;;;;;;14.32;8.25;;;;;;;13.27;33.13;100109.06;10253858;28;20145;-83
2022/03/12 13:39:15;;;;;;;12.18;7.80;;;;;;;13.44;32.44;100100.91;10268718;28;20592;-83
2022/03/12 13:44:20;;;;;;;19.23;8.15;;;;;;;13.65;32.34;100099.44;10268750;28;20051;-82
2022/03/12 13:49:24;;;;;;;10.85;7.78;;;;;;;13.67;31.80;100102.78;10250464;28;20152;-83
2022/03/12 13:54:25;;;;;;;11.27;7.68;;;;;;;13.75;31.71;100101.31;10268618;28;20129;-83
2022/03/12 13:59:34;;;;;;;9.13;6.68;;;;;;;13.70;31.73;100107.81;10270473;28;20050;-83
2022/03/12 14:04:36;;;;;;;10.93;7.47;;;;;;;14.00;31.76;100099.56;10307492;28;20050;-83
2022/03/12 14:09:51;;;;;;;10.32;7.43;;;;;;;14.17;31.23;100102.66;10312122;28;20058;-84
2022/03/12 14:15:03;;;;;;;10.30;7.30;;;;;;;14.06;31.21;100102.63;10311890;28;20047;-83
2022/03/12 14:20:08;;;;;;;11.32;7.15;;;;;;;13.78;31.39;100101.09;10310927;28;20526;-83
2022/03/12 14:25:10;;;;;;;11.65;7.97;;;;;;;13.37;32.00;100094.38;10313048;28;20129;-83
2022/03/12 14:30:13;;;;;;;10.77;7.80;;;;;;;13.33;32.40;100096.34;10292880;28;20082;-83
2022/03/12 14:35:17;;;;;;;12.02;7.03;;;;;;;13.41;32.38;100093.22;10306336;28;20442;-82
2022/03/12 14:40:21;;;;;;;10.43;7.20;;;;;;;13.52;32.05;100088.06;10312827;28;20484;-83
2022/03/12 14:45:24;;;;;;;9.02;7.00;;;;;;;13.44;32.16;100093.88;10312089;28;20137;-83
2022/03/12 14:50:26;;;;;;;9.93;7.30;;;;;;;13.43;32.29;100089.53;10308291;28;20061;-84
2022/03/12 14:55:29;;;;;;;9.20;6.93;;;;;;;13.74;32.09;100088.25;10294323;28;20087;-83
2022/03/12 15:00:31;;;;;;;11.43;6.80;;;;;;;14.02;31.72;100088.00;10320326;28;20090;-82
2022/03/12 15:05:39;;;;;;;10.13;6.85;;;;;;;14.03;31.82;100079.16;10317955;28;20150;-83
2022/03/12 15:10:42;;;;;;;9.82;6.30;;;;;;;14.10;32.13;100079.56;10301635;28;20419;-83
2022/03/12 15:15:44;;;;;;;6.80;4.50;;;;;;;14.36;33.14;100076.72;10316888;28;20157;-83
2022/03/12 15:20:48;;;;;;;10.95;5.13;;;;;;;14.49;33.08;100082.78;10318971;28;20068;-84
2022/03/12 15:26:01;;;;;;;9.43;6.05;;;;;;;14.53;33.02;100089.50;10317062;28;20086;-83
2022/03/12 15:31:08;;;;;;;8.18;5.47;;;;;;;14.54;33.08;100085.94;10317164;28;20062;-83
2022/03/12 15:36:17;;;;;;;10.70;5.90;;;;;;;14.39;33.23;100079.13;10318129;28;20061;-83
2022/03/12 15:41:20;;;;;;;8.07;5.72;;;;;;;14.30;33.61;100066.66;10318469;28;20064;-82
2022/03/12 15:46:26;;;;;;;10.23;5.95;;;;;;;14.31;33.28;100068.31;10316318;28;20561;-82
2022/03/12 15:51:31;;;;;;;9.18;5.53;;;;;;;14.19;33.81;100063.94;10303675;28;21175;-84
2022/03/12 15:56:32;;;;;;;9.50;5.70;;;;;;;14.20;33.68;100068.28;10318212;28;20488;-83
2022/03/12 16:01:35;;;;;;;8.38;5.78;;;;;;;13.86;33.85;100066.34;10316157;28;20146;-83
2022/03/12 16:06:39;;;;;;;8.95;6.40;;;;;;;13.56;34.62;100052.75;10316200;28;20066;-83
2022/03/12 16:11:41;;;;;;;11.05;6.22;;;;;;;13.38;35.09;100048.75;10314132;28;20165;-83
2022/03/12 16:16:43;;;;;;;12.82;6.95;;;;;;;13.12;35.09;100047.06;10315223;28;20500;-83
2022/03/12 16:21:48;;;;;;;11.15;7.00;;;;;;;12.84;35.13;100038.44;10315129;28;20456;-83
2022/03/12 16:26:50;;;;;;;17.90;13.23;;;;;;;12.51;34.96;100040.72;10315833;28;20157;-83
2022/03/12 16:31:51;;;;;;;23.25;12.77;;;;;;;12.29;35.23;100035.19;10315483;28;20046;-83
2022/03/12 16:36:55;;;;;;;12.93;9.52;;;;;;;12.11;35.36;100028.44;10314709;28;20054;-82
2022/03/12 16:41:58;;;;;;;14.73;9.95;;;;;;;11.86;35.77;100025.72;10313928;28;20142;-83
2022/03/12 16:47:02;;;;;;;14.10;8.43;;;;;;;11.76;35.93;100022.00;10292997;28;20081;-83
2022/03/12 16:52:04;;;;;;;13.80;10.13;;;;;;;11.64;36.01;100023.59;10314050;28;20157;-83
2022/03/12 16:57:08;;;;;;;17.95;9.05;;;;;;;11.55;36.40;100025.97;10310650;28;21128;-82
2022/03/12 17:02:10;;;;;;;15.88;8.75;;;;;;;11.34;36.69;100017.66;10314653;28;20078;-83
2022/03/12 17:07:12;;;;;;;16.88;9.45;;;;;;;11.20;36.89;100026.38;10313400;28;20065;-82
2022/03/12 17:12:17;;;;;;;15.23;8.73;;;;;;;10.96;37.33;100024.34;10315583;28;20046;-83
2022/03/12 17:17:22;;;;;;;13.43;8.45;;;;;;;10.74;37.38;100027.41;10306458;28;20129;-82
2022/03/12 17:22:24;;;;;;;12.05;7.90;;;;;;;10.64;37.55;100021.03;10310728;28;20072;-83
2022/03/12 17:27:26;;;;;;;15.15;11.57;;;;;;;10.51;37.84;100025.28;10293065;28;20050;-83
2022/03/12 17:32:29;;;;;;;17.05;11.30;;;;;;;10.30;38.21;100021.25;10309943;28;20224;-83
2022/03/12 17:37:31;;;;;;;15.48;10.20;;;;;;;10.08;38.91;100024.25;10309373;28;20172;-83
2022/03/12 17:42:40;;;;;;;21.15;11.82;;;;;;;9.94;39.02;100025.97;10310343;28;20141;-83
2022/03/12 17:47:42;;;;;;;14.63;9.85;;;;;;;9.83;38.66;100018.72;10309255;28;20143;-83
2022/03/12 17:52:45;;;;;;;12.98;9.02;;;;;;;9.74;39.23;100016.63;10309939;28;20054;-83
2022/03/12 17:57:47;;;;;;;14.57;8.85;;;;;;;9.70;39.20;100025.56;10305897;28;20050;-83
2022/03/12 18:02:52;;;;;;;16.73;10.82;;;;;;;9.60;39.56;100029.56;10295270;28;20086;-83
2022/03/12 18:07:56;;;;;;;19.30;15.30;;;;;;;9.39;40.05;100033.31;10311365;28;20053;-83
2022/03/12 18:12:59;;;;;;;16.77;10.30;;;;;;;9.24;40.20;100039.34;10310898;28;20046;-83
2022/03/12 18:18:02;;;;;;;17.55;11.90;;;;;;;9.09;40.84;100043.59;10293541;28;20056;-83
2022/03/12 18:23:04;;;;;;;28.23;19.48;;;;;;;9.07;40.81;100045.44;10310547;28;20136;-83
2022/03/12 18:28:06;;;;;;;19.13;11.23;;;;;;;8.85;41.58;100044.88;10310499;28;20144;-84
2022/03/12 18:33:08;;;;;;;15.18;10.68;;;;;;;8.40;42.61;100049.75;10311867;28;20137;-83
2022/03/12 18:38:09;;;;;;;15.85;10.45;;;;;;;8.31;43.05;100048.44;10323365;28;20579;-83
2022/03/12 18:43:14;;;;;;;16.48;10.93;;;;;;;8.35;42.95;100054.34;10319018;28;20060;-83
2022/03/12 18:48:18;;;;;;;14.75;10.57;;;;;;;8.28;43.13;100056.38;10316212;28;20563;-83
2022/03/12 18:53:21;;;;;;;17.35;11.65;;;;;;;8.09;43.53;100057.31;10293446;28;20069;-83
2022/03/12 18:58:23;;;;;;;18.88;12.77;;;;;;;8.00;43.82;100058.59;10313745;28;20071;-83
2022/03/12 19:03:26;;;;;;;19.10;11.73;;;;;;;7.88;43.87;100059.16;10313629;28;20415;-82
2022/03/12 19:08:32;;;;;;;16.55;12.48;;;;;;;7.66;44.61;100053.28;10314820;28;20511;-82
2022/03/12 19:13:39;;;;;;;19.20;13.20;;;;;;;7.53;45.03;100049.56;10301967;28;20093;-82
2022/03/12 19:18:41;;;;;;;22.45;13.80;;;;;;;7.34;45.23;100044.34;10318804;28;20488;-82
2022/03/12 19:23:43;;;;;;;24.02;13.48;;;;;;;7.27;45.60;100042.91;10319097;28;20125;-82
2022/03/12 19:28:45;;;;;;;19.30;14.13;;;;;;;7.26;45.87;100050.78;10318424;28;20145;-82
2022/03/12 19:33:48;;;;;;;25.30;14.50;;;;;;;7.28;45.88;100052.41;10318767;28;20157;-83
2022/03/12 19:38:50;;;;;;;28.20;16.90;;;;;;;7.26;45.89;100054.22;10317845;28;20833;-82
2022/03/12 19:43:52;;;;;;;26.50;16.98;;;;;;;7.24;45.61;100061.25;10316654;28;20145;-83
2022/03/12 19:48:54;;;;;;;25.50;16.30;;;;;;;6.92;46.25;100057.44;10311054;28;20169;-82
2022/03/12 19:53:56;;;;;;;21.30;15.05;;;;;;;6.85;46.57;100057.78;10312962;28;20056;-83
2022/03/12 19:58:58;;;;;;;26.15;15.68;;;;;;;6.69;47.03;100064.53;10316390;28;20141;-82
2022/03/12 20:04:00;;;;;;;22.42;15.32;;;;;;;6.56;47.46;100072.00;10320156;28;20145;-82
2022/03/12 20:09:02;;;;;;;22.00;15.52;;;;;;;6.51;47.34;100075.69;10298148;28;20129;-81
2022/03/12 20:14:05;;;;;;;24.13;15.93;;;;;;;6.52;47.61;100067.81;10315843;28;20050;-82
2022/03/12 20:19:07;;;;;;;24.20;16.50;;;;;;;6.52;47.69;100064.38;10314077;28;20129;-82
2022/03/12 20:24:10;;;;;;;29.98;17.00;;;;;;;6.43;47.60;100067.38;10315150;28;20157;-82
2022/03/12 20:29:11;;;;;;;25.60;16.75;;;;;;;6.35;47.80;100065.06;10316375;28;20133;-81
2022/03/12 20:34:14;;;;;;;20.88;15.73;;;;;;;6.29;48.23;100067.91;10314088;28;20085;-82
2022/03/12 20:39:16;;;;;;;23.02;15.88;;;;;;;6.24;48.11;100056.84;10314196;28;20062;-82
2022/03/12 20:44:19;;;;;;;21.23;16.40;;;;;;;6.19;48.52;100067.41;10314319;28;20072;-82
2022/03/12 20:49:20;;;;;;;24.05;15.90;;;;;;;6.09;48.87;100070.41;10313853;28;20046;-82
2022/03/12 20:54:22;;;;;;;28.35;18.85;;;;;;;5.96;48.93;100064.84;10296512;28;20108;-81
2022/03/12 20:59:25;;;;;;;22.80;17.45;;;;;;;5.89;49.24;100067.75;10313762;28;20137;-82
2022/03/12 21:04:27;;;;;;;22.95;14.40;;;;;;;5.77;49.76;100070.81;10294497;28;20050;-82
2022/03/12 21:09:30;;;;;;;22.23;14.20;;;;;;;5.63;49.96;100066.16;10296387;28;20053;-82
2022/03/12 21:14:33;;;;;;;30.08;19.80;;;;;;;5.56;50.08;100069.88;10312639;28;20568;-82
2022/03/12 21:19:34;;;;;;;46.45;27.30;;;;;;;5.47;49.96;100065.03;10313539;28;20156;-82
2022/03/12 21:24:36;;;;;;;35.38;22.23;;;;;;;5.27;50.19;100067.47;10312086;28;20124;-81
2022/03/12 21:29:38;;;;;;;40.40;23.77;;;;;;;5.17;50.63;100068.72;10294960;28;20109;-81
2022/03/12 21:34:47;;;;;;;42.95;26.70;;;;;;;5.06;50.92;100068.25;10312262;28;20064;-82
2022/03/12 21:39:49;;;;;;;31.05;19.65;;;;;;;4.96;50.94;100072.06;10312339;28;20161;-81
2022/03/12 21:44:54;;;;;;;34.45;22.23;;;;;;;4.89;51.27;100065.41;10312848;28;20133;-81
2022/03/12 21:49:57;;;;;;;33.10;22.27;;;;;;;4.79;51.23;100074.38;10309530;28;20058;-81
2022/03/12 21:54:59;;;;;;;30.95;19.60;;;;;;;4.75;51.64;100059.84;10314263;28;20162;-85
2022/03/12 22:00:31;;;;;;;27.23;17.95;;;;;;;4.58;52.29;100053.50;10312541;28;20136;-81
2022/03/12 22:05:34;;;;;;;33.15;18.52;;;;;;;4.53;51.99;100051.97;10312590;28;20064;-81
2022/03/12 22:10:36;;;;;;;27.42;18.98;;;;;;;4.54;51.85;100051.91;10311113;28;20133;-81
2022/03/12 22:15:40;;;;;;;29.42;19.30;;;;;;;4.52;52.19;100048.50;10312032;28;20082;-81
2022/03/12 22:20:43;;;;;;;29.40;19.65;;;;;;;4.43;51.93;100040.22;10310774;28;20054;-81
2022/03/12 22:25:45;;;;;;;32.22;21.67;;;;;;;4.26;52.63;100029.56;10311932;28;20129;-81
2022/03/12 22:30:49;;;;;;;31.10;20.65;;;;;;;4.22;52.79;100027.97;10292906;28;20467;-81
2022/03/12 22:35:51;;;;;;;30.23;21.25;;;;;;;4.14;52.53;100025.63;10311585;28;20125;-81
2022/03/12 22:40:57;;;;;;;28.88;19.73;;;;;;;4.14;52.88;100023.03;10293213;28;20142;-81
2022/03/12 22:46:00;;;;;;;33.03;20.30;;;;;;;4.09;52.72;100022.31;10291888;28;20570;-81
2022/03/12 22:51:02;;;;;;;30.27;19.23;;;;;;;4.08;52.81;100017.22;10292791;28;21007;-81
2022/03/12 22:56:08;;;;;;;28.95;19.23;;;;;;;4.04;53.06;100015.59;10311539;28;20139;-81
2022/03/12 23:01:51;;;;;;;33.38;21.20;;;;;;;3.70;54.08;100008.84;10306659;28;20124;-81
2022/03/12 23:12:19;;;;;;;32.65;20.67;;;;;;;3.57;54.08;100010.16;10212949;28;20133;-81
2022/03/12 23:17:26;;;;;;;33.10;20.33;;;;;;;3.61;54.36;100005.72;10310547;28;20053;-81
2022/03/12 23:22:29;;;;;;;30.00;21.27;;;;;;;3.61;53.83;100000.53;10317114;28;20086;-81
2022/03/12 23:27:33;;;;;;;30.42;21.17;;;;;;;3.64;54.29;99997.88;10316929;28;20138;-81